sensor_id;sensor_type;location;lat;lon;timestamp;P1;durP1;ratioP1;P2;durP2;ratioP2
4389;SDS011;2209;48.982;8.406;2023-12-04T00:01:43;22.10;;;15.13;;
4389;SDS011;2209;48.982;8.406;2023-12-04T00:04:06;19.13;;;14.30;;
4389;SDS011;2209;48.982;8.406;2023-12-04T00:06:28;22.30;;;14.87;;
4389;SDS011;2209;48.982;8.406;2023-12-04T00:08:51;19.03;;;14.50;;
4389;SDS011;2209;48.982;8.406;2023-12-04T00:11:13;19.07;;;13.97;;
4389;SDS011;2209;48.982;8.406;2023-12-04T00:13:35;20.77;;;15.30;;
4389;SDS011;2209;48.982;8.406;2023-12-04T00:15:57;22.90;;;15.53;;
4389;SDS011;2209;48.982;8.406;2023-12-04T00:18:20;20.37;;;15.40;;
4389;SDS011;2209;48.982;8.406;2023-12-04T00:20:42;21.50;;;15.40;;
4389;SDS011;2209;48.982;8.406;2023-12-04T00:23:04;21.97;;;15.87;;
4389;SDS011;2209;48.982;8.406;2023-12-04T00:25:27;22.47;;;15.77;;
4389;SDS011;2209;48.982;8.406;2023-12-04T00:27:49;21.33;;;15.30;;
4389;SDS011;2209;48.982;8.406;2023-12-04T00:30:11;22.40;;;14.70;;
4389;SDS011;2209;48.982;8.406;2023-12-04T00:32:34;21.37;;;15.30;;
4389;SDS011;2209;48.982;8.406;2023-12-04T00:34:56;19.23;;;13.90;;
4389;SDS011;2209;48.982;8.406;2023-12-04T00:37:17;18.50;;;13.97;;
4389;SDS011;2209;48.982;8.406;2023-12-04T00:39:39;16.87;;;12.53;;
4389;SDS011;2209;48.982;8.406;2023-12-04T00:42:02;20.63;;;13.37;;
4389;SDS011;2209;48.982;8.406;2023-12-04T00:44:25;18.30;;;14.73;;
4389;SDS011;2209;48.982;8.406;2023-12-04T00:46:47;17.93;;;13.67;;
4389;SDS011;2209;48.982;8.406;2023-12-04T00:49:09;17.70;;;13.93;;
4389;SDS011;2209;48.982;8.406;2023-12-04T00:51:36;16.97;;;13.83;;
4389;SDS011;2209;48.982;8.406;2023-12-04T00:53:59;22.00;;;14.90;;
4389;SDS011;2209;48.982;8.406;2023-12-04T00:56:21;18.53;;;14.20;;
4389;SDS011;2209;48.982;8.406;2023-12-04T00:58:45;17.30;;;13.00;;
4389;SDS011;2209;48.982;8.406;2023-12-04T01:01:07;17.80;;;13.80;;
4389;SDS011;2209;48.982;8.406;2023-12-04T01:03:29;17.27;;;13.80;;
4389;SDS011;2209;48.982;8.406;2023-12-04T01:05:53;18.63;;;14.10;;
4389;SDS011;2209;48.982;8.406;2023-12-04T01:08:15;20.30;;;14.23;;
4389;SDS011;2209;48.982;8.406;2023-12-04T01:10:38;17.23;;;12.47;;
4389;SDS011;2209;48.982;8.406;2023-12-04T01:13:00;18.33;;;13.20;;
4389;SDS011;2209;48.982;8.406;2023-12-04T01:15:24;19.33;;;12.97;;
4389;SDS011;2209;48.982;8.406;2023-12-04T01:17:47;13.70;;;12.10;;
4389;SDS011;2209;48.982;8.406;2023-12-04T01:20:09;14.63;;;12.27;;
4389;SDS011;2209;48.982;8.406;2023-12-04T01:22:32;19.40;;;13.57;;
4389;SDS011;2209;48.982;8.406;2023-12-04T01:24:54;20.50;;;12.80;;
4389;SDS011;2209;48.982;8.406;2023-12-04T01:27:16;15.30;;;12.63;;
4389;SDS011;2209;48.982;8.406;2023-12-04T01:29:38;17.53;;;13.47;;
4389;SDS011;2209;48.982;8.406;2023-12-04T01:32:01;17.63;;;13.20;;
4389;SDS011;2209;48.982;8.406;2023-12-04T01:34:22;18.17;;;12.87;;
4389;SDS011;2209;48.982;8.406;2023-12-04T01:36:44;17.20;;;13.40;;
4389;SDS011;2209;48.982;8.406;2023-12-04T01:39:06;19.20;;;12.73;;
4389;SDS011;2209;48.982;8.406;2023-12-04T01:41:28;17.90;;;13.53;;
4389;SDS011;2209;48.982;8.406;2023-12-04T01:43:51;15.93;;;12.43;;
4389;SDS011;2209;48.982;8.406;2023-12-04T01:46:14;20.20;;;13.13;;
4389;SDS011;2209;48.982;8.406;2023-12-04T01:48:39;17.03;;;12.50;;
4389;SDS011;2209;48.982;8.406;2023-12-04T01:51:02;18.10;;;13.40;;
4389;SDS011;2209;48.982;8.406;2023-12-04T01:53:27;17.57;;;12.10;;
4389;SDS011;2209;48.982;8.406;2023-12-04T01:55:50;16.93;;;12.77;;
4389;SDS011;2209;48.982;8.406;2023-12-04T01:58:12;17.30;;;13.27;;
4389;SDS011;2209;48.982;8.406;2023-12-04T02:00:34;17.50;;;12.63;;
4389;SDS011;2209;48.982;8.406;2023-12-04T02:02:56;14.70;;;11.40;;
4389;SDS011;2209;48.982;8.406;2023-12-04T02:05:20;18.07;;;12.37;;
4389;SDS011;2209;48.982;8.406;2023-12-04T02:07:44;17.73;;;12.17;;
4389;SDS011;2209;48.982;8.406;2023-12-04T02:10:06;15.73;;;12.60;;
4389;SDS011;2209;48.982;8.406;2023-12-04T02:12:29;18.10;;;12.97;;
4389;SDS011;2209;48.982;8.406;2023-12-04T02:14:51;14.53;;;11.37;;
4389;SDS011;2209;48.982;8.406;2023-12-04T02:17:13;14.57;;;11.57;;
4389;SDS011;2209;48.982;8.406;2023-12-04T02:19:37;18.47;;;14.07;;
4389;SDS011;2209;48.982;8.406;2023-12-04T02:22:01;17.10;;;12.60;;
4389;SDS011;2209;48.982;8.406;2023-12-04T02:24:24;17.50;;;13.80;;
4389;SDS011;2209;48.982;8.406;2023-12-04T02:26:47;16.13;;;12.93;;
4389;SDS011;2209;48.982;8.406;2023-12-04T02:29:14;17.97;;;13.77;;
4389;SDS011;2209;48.982;8.406;2023-12-04T02:31:42;15.70;;;12.50;;
4389;SDS011;2209;48.982;8.406;2023-12-04T02:34:05;17.03;;;12.33;;
4389;SDS011;2209;48.982;8.406;2023-12-04T02:36:28;17.93;;;12.57;;
4389;SDS011;2209;48.982;8.406;2023-12-04T02:38:52;18.23;;;12.47;;
4389;SDS011;2209;48.982;8.406;2023-12-04T02:41:16;15.17;;;12.23;;
4389;SDS011;2209;48.982;8.406;2023-12-04T02:43:38;19.20;;;13.50;;
4389;SDS011;2209;48.982;8.406;2023-12-04T02:46:00;17.67;;;13.70;;
4389;SDS011;2209;48.982;8.406;2023-12-04T02:48:22;18.13;;;14.13;;
4389;SDS011;2209;48.982;8.406;2023-12-04T02:50:44;17.47;;;13.33;;
4389;SDS011;2209;48.982;8.406;2023-12-04T02:53:06;17.37;;;13.50;;
4389;SDS011;2209;48.982;8.406;2023-12-04T02:55:28;19.37;;;12.83;;
4389;SDS011;2209;48.982;8.406;2023-12-04T02:57:52;18.20;;;13.30;;
4389;SDS011;2209;48.982;8.406;2023-12-04T03:00:14;16.57;;;12.33;;
4389;SDS011;2209;48.982;8.406;2023-12-04T03:02:36;16.77;;;12.00;;
4389;SDS011;2209;48.982;8.406;2023-12-04T03:04:58;18.10;;;13.17;;
4389;SDS011;2209;48.982;8.406;2023-12-04T03:07:20;15.63;;;13.60;;
4389;SDS011;2209;48.982;8.406;2023-12-04T03:09:44;16.70;;;12.83;;
4389;SDS011;2209;48.982;8.406;2023-12-04T03:12:06;15.43;;;13.30;;
4389;SDS011;2209;48.982;8.406;2023-12-04T03:14:30;18.30;;;12.30;;
4389;SDS011;2209;48.982;8.406;2023-12-04T03:16:52;14.73;;;12.30;;
4389;SDS011;2209;48.982;8.406;2023-12-04T03:19:14;15.30;;;11.97;;
4389;SDS011;2209;48.982;8.406;2023-12-04T03:21:36;13.40;;;11.87;;
4389;SDS011;2209;48.982;8.406;2023-12-04T03:23:58;16.93;;;13.13;;
4389;SDS011;2209;48.982;8.406;2023-12-04T03:26:20;16.97;;;12.50;;
4389;SDS011;2209;48.982;8.406;2023-12-04T03:28:42;16.70;;;13.07;;
4389;SDS011;2209;48.982;8.406;2023-12-04T03:31:06;14.77;;;11.60;;
4389;SDS011;2209;48.982;8.406;2023-12-04T03:33:28;15.97;;;12.10;;
4389;SDS011;2209;48.982;8.406;2023-12-04T03:35:50;15.13;;;11.13;;
4389;SDS011;2209;48.982;8.406;2023-12-04T03:38:12;15.90;;;11.10;;
4389;SDS011;2209;48.982;8.406;2023-12-04T03:40:35;17.70;;;12.33;;
4389;SDS011;2209;48.982;8.406;2023-12-04T03:42:57;16.80;;;12.30;;
4389;SDS011;2209;48.982;8.406;2023-12-04T03:45:19;15.30;;;12.60;;
4389;SDS011;2209;48.982;8.406;2023-12-04T03:47:42;16.00;;;13.10;;
4389;SDS011;2209;48.982;8.406;2023-12-04T03:50:04;16.60;;;13.33;;
4389;SDS011;2209;48.982;8.406;2023-12-04T03:52:27;19.30;;;13.80;;
4389;SDS011;2209;48.982;8.406;2023-12-04T03:54:49;18.47;;;12.13;;
4389;SDS011;2209;48.982;8.406;2023-12-04T03:57:13;16.50;;;13.03;;
4389;SDS011;2209;48.982;8.406;2023-12-04T03:59:35;14.60;;;11.33;;
4389;SDS011;2209;48.982;8.406;2023-12-04T04:01:57;19.57;;;13.20;;
4389;SDS011;2209;48.982;8.406;2023-12-04T04:04:20;18.83;;;13.00;;
4389;SDS011;2209;48.982;8.406;2023-12-04T04:06:44;18.13;;;13.37;;
4389;SDS011;2209;48.982;8.406;2023-12-04T04:09:06;19.00;;;13.23;;
4389;SDS011;2209;48.982;8.406;2023-12-04T04:11:28;18.13;;;14.40;;
4389;SDS011;2209;48.982;8.406;2023-12-04T04:13:50;16.70;;;13.17;;
4389;SDS011;2209;48.982;8.406;2023-12-04T04:16:13;17.77;;;12.50;;
4389;SDS011;2209;48.982;8.406;2023-12-04T04:18:36;18.00;;;13.67;;
4389;SDS011;2209;48.982;8.406;2023-12-04T04:21:00;19.93;;;16.00;;
4389;SDS011;2209;48.982;8.406;2023-12-04T04:23:22;19.07;;;14.83;;
4389;SDS011;2209;48.982;8.406;2023-12-04T04:25:44;21.87;;;15.03;;
4389;SDS011;2209;48.982;8.406;2023-12-04T04:28:06;18.23;;;14.17;;
4389;SDS011;2209;48.982;8.406;2023-12-04T04:30:28;19.60;;;14.50;;
4389;SDS011;2209;48.982;8.406;2023-12-04T04:32:51;20.60;;;14.40;;
4389;SDS011;2209;48.982;8.406;2023-12-04T04:35:13;18.77;;;13.70;;
4389;SDS011;2209;48.982;8.406;2023-12-04T04:37:36;19.20;;;13.63;;
4389;SDS011;2209;48.982;8.406;2023-12-04T04:39:58;22.37;;;13.97;;
4389;SDS011;2209;48.982;8.406;2023-12-04T04:42:20;17.17;;;12.07;;
4389;SDS011;2209;48.982;8.406;2023-12-04T04:44:43;17.17;;;12.30;;
4389;SDS011;2209;48.982;8.406;2023-12-04T04:47:05;14.77;;;12.07;;
4389;SDS011;2209;48.982;8.406;2023-12-04T04:49:28;17.50;;;12.53;;
4389;SDS011;2209;48.982;8.406;2023-12-04T04:51:50;15.00;;;11.23;;
4389;SDS011;2209;48.982;8.406;2023-12-04T04:54:13;18.77;;;12.20;;
4389;SDS011;2209;48.982;8.406;2023-12-04T04:56:35;11.30;;;9.70;;
4389;SDS011;2209;48.982;8.406;2023-12-04T04:58:57;12.40;;;11.20;;
4389;SDS011;2209;48.982;8.406;2023-12-04T05:01:19;14.83;;;11.83;;
4389;SDS011;2209;48.982;8.406;2023-12-04T05:03:41;14.00;;;10.30;;
4389;SDS011;2209;48.982;8.406;2023-12-04T05:06:04;15.53;;;9.80;;
4389;SDS011;2209;48.982;8.406;2023-12-04T05:08:26;15.23;;;11.90;;
4389;SDS011;2209;48.982;8.406;2023-12-04T05:10:49;18.00;;;12.67;;
4389;SDS011;2209;48.982;8.406;2023-12-04T05:13:12;17.50;;;12.97;;
4389;SDS011;2209;48.982;8.406;2023-12-04T05:15:34;16.40;;;13.40;;
4389;SDS011;2209;48.982;8.406;2023-12-04T05:17:56;19.87;;;12.80;;
4389;SDS011;2209;48.982;8.406;2023-12-04T05:20:18;19.93;;;12.83;;
4389;SDS011;2209;48.982;8.406;2023-12-04T05:22:40;17.03;;;12.27;;
4389;SDS011;2209;48.982;8.406;2023-12-04T05:25:03;18.20;;;13.40;;
4389;SDS011;2209;48.982;8.406;2023-12-04T05:27:26;24.43;;;16.63;;
4389;SDS011;2209;48.982;8.406;2023-12-04T05:29:48;21.00;;;15.13;;
4389;SDS011;2209;48.982;8.406;2023-12-04T05:32:11;20.73;;;14.37;;
4389;SDS011;2209;48.982;8.406;2023-12-04T05:34:34;21.60;;;15.77;;
4389;SDS011;2209;48.982;8.406;2023-12-04T05:36:56;20.70;;;15.00;;
4389;SDS011;2209;48.982;8.406;2023-12-04T05:39:18;20.60;;;16.60;;
4389;SDS011;2209;48.982;8.406;2023-12-04T05:41:40;22.60;;;16.43;;
4389;SDS011;2209;48.982;8.406;2023-12-04T05:44:03;22.70;;;16.77;;
4389;SDS011;2209;48.982;8.406;2023-12-04T05:46:25;24.73;;;17.07;;
4389;SDS011;2209;48.982;8.406;2023-12-04T05:48:48;26.90;;;16.63;;
4389;SDS011;2209;48.982;8.406;2023-12-04T05:51:10;25.33;;;18.20;;
4389;SDS011;2209;48.982;8.406;2023-12-04T05:53:32;24.03;;;16.97;;
4389;SDS011;2209;48.982;8.406;2023-12-04T05:55:54;25.50;;;17.90;;
4389;SDS011;2209;48.982;8.406;2023-12-04T05:58:16;24.50;;;18.77;;
4389;SDS011;2209;48.982;8.406;2023-12-04T06:00:40;22.00;;;16.07;;
4389;SDS011;2209;48.982;8.406;2023-12-04T06:03:02;21.73;;;15.93;;
4389;SDS011;2209;48.982;8.406;2023-12-04T06:05:24;26.27;;;16.57;;
4389;SDS011;2209;48.982;8.406;2023-12-04T06:07:46;23.00;;;16.97;;
4389;SDS011;2209;48.982;8.406;2023-12-04T06:10:08;24.47;;;17.10;;
4389;SDS011;2209;48.982;8.406;2023-12-04T06:12:30;23.70;;;15.73;;
4389;SDS011;2209;48.982;8.406;2023-12-04T06:14:53;22.03;;;17.03;;
4389;SDS011;2209;48.982;8.406;2023-12-04T06:17:16;21.70;;;16.53;;
4389;SDS011;2209;48.982;8.406;2023-12-04T06:19:38;30.20;;;20.27;;
4389;SDS011;2209;48.982;8.406;2023-12-04T06:22:00;24.20;;;17.73;;
4389;SDS011;2209;48.982;8.406;2023-12-04T06:24:22;24.40;;;16.83;;
4389;SDS011;2209;48.982;8.406;2023-12-04T06:26:45;18.97;;;15.30;;
4389;SDS011;2209;48.982;8.406;2023-12-04T06:29:11;20.33;;;15.60;;
4389;SDS011;2209;48.982;8.406;2023-12-04T06:31:34;17.67;;;14.30;;
4389;SDS011;2209;48.982;8.406;2023-12-04T06:33:57;18.93;;;14.90;;
4389;SDS011;2209;48.982;8.406;2023-12-04T06:36:20;22.83;;;15.47;;
4389;SDS011;2209;48.982;8.406;2023-12-04T06:38:43;23.83;;;17.43;;
4389;SDS011;2209;48.982;8.406;2023-12-04T06:41:09;35.20;;;25.83;;
4389;SDS011;2209;48.982;8.406;2023-12-04T06:43:32;26.60;;;19.37;;
4389;SDS011;2209;48.982;8.406;2023-12-04T06:45:55;20.10;;;14.97;;
4389;SDS011;2209;48.982;8.406;2023-12-04T06:48:19;19.40;;;15.47;;
4389;SDS011;2209;48.982;8.406;2023-12-04T06:50:43;17.60;;;14.07;;
4389;SDS011;2209;48.982;8.406;2023-12-04T06:53:05;20.80;;;13.87;;
4389;SDS011;2209;48.982;8.406;2023-12-04T06:55:27;17.40;;;13.70;;
4389;SDS011;2209;48.982;8.406;2023-12-04T06:57:49;16.60;;;12.00;;
4389;SDS011;2209;48.982;8.406;2023-12-04T07:00:12;17.23;;;13.23;;
4389;SDS011;2209;48.982;8.406;2023-12-04T07:02:35;18.43;;;12.70;;
4389;SDS011;2209;48.982;8.406;2023-12-04T07:04:57;16.10;;;11.47;;
4389;SDS011;2209;48.982;8.406;2023-12-04T07:07:20;19.27;;;13.30;;
4389;SDS011;2209;48.982;8.406;2023-12-04T07:09:42;13.93;;;11.37;;
4389;SDS011;2209;48.982;8.406;2023-12-04T07:12:05;18.90;;;12.00;;
4389;SDS011;2209;48.982;8.406;2023-12-04T07:14:27;15.70;;;12.10;;
4389;SDS011;2209;48.982;8.406;2023-12-04T07:16:50;14.57;;;11.93;;
4389;SDS011;2209;48.982;8.406;2023-12-04T07:19:12;14.70;;;11.80;;
4389;SDS011;2209;48.982;8.406;2023-12-04T07:21:35;16.20;;;11.97;;
4389;SDS011;2209;48.982;8.406;2023-12-04T07:23:58;10.83;;;9.33;;
4389;SDS011;2209;48.982;8.406;2023-12-04T07:26:20;11.87;;;9.80;;
4389;SDS011;2209;48.982;8.406;2023-12-04T07:28:42;12.20;;;9.87;;
4389;SDS011;2209;48.982;8.406;2023-12-04T07:31:05;13.17;;;10.67;;
4389;SDS011;2209;48.982;8.406;2023-12-04T07:33:27;17.43;;;12.57;;
4389;SDS011;2209;48.982;8.406;2023-12-04T07:35:50;15.57;;;11.80;;
4389;SDS011;2209;48.982;8.406;2023-12-04T07:38:12;15.87;;;10.83;;
4389;SDS011;2209;48.982;8.406;2023-12-04T07:40:35;14.10;;;11.07;;
4389;SDS011;2209;48.982;8.406;2023-12-04T07:42:57;11.60;;;8.77;;
4389;SDS011;2209;48.982;8.406;2023-12-04T07:45:19;11.20;;;8.80;;
4389;SDS011;2209;48.982;8.406;2023-12-04T07:47:41;13.23;;;9.97;;
4389;SDS011;2209;48.982;8.406;2023-12-04T07:50:04;12.37;;;10.00;;
4389;SDS011;2209;48.982;8.406;2023-12-04T07:52:27;12.97;;;9.37;;
4389;SDS011;2209;48.982;8.406;2023-12-04T07:54:49;10.53;;;9.30;;
4389;SDS011;2209;48.982;8.406;2023-12-04T07:57:13;10.53;;;9.40;;
4389;SDS011;2209;48.982;8.406;2023-12-04T07:59:35;12.37;;;9.53;;
4389;SDS011;2209;48.982;8.406;2023-12-04T08:01:57;12.93;;;9.43;;
4389;SDS011;2209;48.982;8.406;2023-12-04T08:04:19;12.70;;;9.10;;
4389;SDS011;2209;48.982;8.406;2023-12-04T08:06:41;13.63;;;9.90;;
4389;SDS011;2209;48.982;8.406;2023-12-04T08:09:03;11.53;;;9.20;;
4389;SDS011;2209;48.982;8.406;2023-12-04T08:11:26;14.13;;;10.50;;
4389;SDS011;2209;48.982;8.406;2023-12-04T08:13:49;13.77;;;9.57;;
4389;SDS011;2209;48.982;8.406;2023-12-04T08:16:14;12.33;;;10.40;;
4389;SDS011;2209;48.982;8.406;2023-12-04T08:18:36;13.40;;;10.47;;
4389;SDS011;2209;48.982;8.406;2023-12-04T08:20:59;15.10;;;9.80;;
4389;SDS011;2209;48.982;8.406;2023-12-04T08:23:21;13.13;;;10.37;;
4389;SDS011;2209;48.982;8.406;2023-12-04T08:25:43;13.93;;;10.13;;
4389;SDS011;2209;48.982;8.406;2023-12-04T08:28:06;13.83;;;9.80;;
4389;SDS011;2209;48.982;8.406;2023-12-04T08:30:30;11.53;;;8.77;;
4389;SDS011;2209;48.982;8.406;2023-12-04T08:32:52;11.70;;;9.57;;
4389;SDS011;2209;48.982;8.406;2023-12-04T08:35:15;14.43;;;10.37;;
4389;SDS011;2209;48.982;8.406;2023-12-04T08:37:37;11.80;;;9.23;;
4389;SDS011;2209;48.982;8.406;2023-12-04T08:39:59;15.30;;;9.47;;
4389;SDS011;2209;48.982;8.406;2023-12-04T08:42:21;13.47;;;9.83;;
4389;SDS011;2209;48.982;8.406;2023-12-04T08:44:43;14.20;;;10.37;;
4389;SDS011;2209;48.982;8.406;2023-12-04T08:47:07;12.23;;;9.90;;
4389;SDS011;2209;48.982;8.406;2023-12-04T08:49:29;13.07;;;10.57;;
4389;SDS011;2209;48.982;8.406;2023-12-04T08:51:52;12.97;;;10.40;;
4389;SDS011;2209;48.982;8.406;2023-12-04T08:54:14;12.33;;;9.70;;
4389;SDS011;2209;48.982;8.406;2023-12-04T08:56:36;12.60;;;10.87;;
4389;SDS011;2209;48.982;8.406;2023-12-04T08:58:58;14.70;;;10.60;;
4389;SDS011;2209;48.982;8.406;2023-12-04T09:01:20;12.70;;;9.80;;
4389;SDS011;2209;48.982;8.406;2023-12-04T09:03:44;13.57;;;10.53;;
4389;SDS011;2209;48.982;8.406;2023-12-04T09:06:06;14.80;;;11.33;;
4389;SDS011;2209;48.982;8.406;2023-12-04T09:08:29;14.83;;;10.07;;
4389;SDS011;2209;48.982;8.406;2023-12-04T09:10:52;12.97;;;9.70;;
4389;SDS011;2209;48.982;8.406;2023-12-04T09:13:14;14.37;;;10.30;;
4389;SDS011;2209;48.982;8.406;2023-12-04T09:15:36;12.00;;;9.67;;
4389;SDS011;2209;48.982;8.406;2023-12-04T09:17:58;15.00;;;9.77;;
4389;SDS011;2209;48.982;8.406;2023-12-04T09:20:22;13.90;;;9.63;;
4389;SDS011;2209;48.982;8.406;2023-12-04T09:22:44;14.40;;;10.40;;
4389;SDS011;2209;48.982;8.406;2023-12-04T09:25:06;13.40;;;10.43;;
4389;SDS011;2209;48.982;8.406;2023-12-04T09:27:30;13.83;;;10.00;;
4389;SDS011;2209;48.982;8.406;2023-12-04T09:29:52;16.37;;;9.80;;
4389;SDS011;2209;48.982;8.406;2023-12-04T09:32:14;12.57;;;10.43;;
4389;SDS011;2209;48.982;8.406;2023-12-04T09:34:36;12.90;;;9.73;;
4389;SDS011;2209;48.982;8.406;2023-12-04T09:36:59;14.57;;;10.60;;
4389;SDS011;2209;48.982;8.406;2023-12-04T09:39:21;13.37;;;9.70;;
4389;SDS011;2209;48.982;8.406;2023-12-04T09:41:43;16.27;;;9.67;;
4389;SDS011;2209;48.982;8.406;2023-12-04T09:44:07;14.40;;;9.30;;
4389;SDS011;2209;48.982;8.406;2023-12-04T09:46:29;13.00;;;9.90;;
4389;SDS011;2209;48.982;8.406;2023-12-04T09:48:52;12.00;;;9.00;;
4389;SDS011;2209;48.982;8.406;2023-12-04T09:51:15;13.37;;;10.27;;
4389;SDS011;2209;48.982;8.406;2023-12-04T09:53:39;18.40;;;10.77;;
4389;SDS011;2209;48.982;8.406;2023-12-04T09:56:02;13.10;;;10.43;;
4389;SDS011;2209;48.982;8.406;2023-12-04T09:58:25;12.37;;;9.90;;
4389;SDS011;2209;48.982;8.406;2023-12-04T10:00:49;13.13;;;10.70;;
4389;SDS011;2209;48.982;8.406;2023-12-04T10:03:15;14.90;;;11.70;;
4389;SDS011;2209;48.982;8.406;2023-12-04T10:05:37;13.70;;;9.80;;
4389;SDS011;2209;48.982;8.406;2023-12-04T10:08:04;16.73;;;11.00;;
4389;SDS011;2209;48.982;8.406;2023-12-04T10:10:28;13.93;;;10.50;;
4389;SDS011;2209;48.982;8.406;2023-12-04T10:12:50;15.50;;;11.30;;
4389;SDS011;2209;48.982;8.406;2023-12-04T10:15:12;15.20;;;11.53;;
4389;SDS011;2209;48.982;8.406;2023-12-04T10:17:34;14.87;;;10.80;;
4389;SDS011;2209;48.982;8.406;2023-12-04T10:20:03;13.37;;;10.83;;
4389;SDS011;2209;48.982;8.406;2023-12-04T10:22:31;14.80;;;10.50;;
4389;SDS011;2209;48.982;8.406;2023-12-04T10:24:53;12.47;;;10.97;;
4389;SDS011;2209;48.982;8.406;2023-12-04T10:27:16;13.60;;;10.57;;
4389;SDS011;2209;48.982;8.406;2023-12-04T10:29:40;12.83;;;9.73;;
4389;SDS011;2209;48.982;8.406;2023-12-04T10:32:03;12.53;;;10.00;;
4389;SDS011;2209;48.982;8.406;2023-12-04T10:34:26;13.10;;;10.80;;
4389;SDS011;2209;48.982;8.406;2023-12-04T10:36:48;16.40;;;11.07;;
4389;SDS011;2209;48.982;8.406;2023-12-04T10:39:10;15.80;;;10.60;;
4389;SDS011;2209;48.982;8.406;2023-12-04T10:41:33;12.07;;;8.93;;
4389;SDS011;2209;48.982;8.406;2023-12-04T10:43:57;12.07;;;9.70;;
4389;SDS011;2209;48.982;8.406;2023-12-04T10:46:21;14.80;;;10.80;;
4389;SDS011;2209;48.982;8.406;2023-12-04T10:48:43;14.63;;;11.37;;
4389;SDS011;2209;48.982;8.406;2023-12-04T10:51:06;15.10;;;11.43;;
4389;SDS011;2209;48.982;8.406;2023-12-04T10:53:29;14.30;;;11.20;;
4389;SDS011;2209;48.982;8.406;2023-12-04T10:55:51;14.03;;;11.07;;
4389;SDS011;2209;48.982;8.406;2023-12-04T10:58:17;13.30;;;10.73;;
4389;SDS011;2209;48.982;8.406;2023-12-04T11:00:44;12.23;;;10.27;;
4389;SDS011;2209;48.982;8.406;2023-12-04T11:03:08;14.20;;;10.90;;
4389;SDS011;2209;48.982;8.406;2023-12-04T11:05:31;16.27;;;10.57;;
4389;SDS011;2209;48.982;8.406;2023-12-04T11:07:57;19.87;;;14.13;;
4389;SDS011;2209;48.982;8.406;2023-12-04T11:10:22;18.03;;;12.70;;
4389;SDS011;2209;48.982;8.406;2023-12-04T11:12:45;14.03;;;10.90;;
4389;SDS011;2209;48.982;8.406;2023-12-04T11:15:08;14.37;;;11.03;;
4389;SDS011;2209;48.982;8.406;2023-12-04T11:17:37;14.40;;;10.63;;
4389;SDS011;2209;48.982;8.406;2023-12-04T11:20:02;14.80;;;11.30;;
4389;SDS011;2209;48.982;8.406;2023-12-04T11:22:29;13.00;;;10.33;;
4389;SDS011;2209;48.982;8.406;2023-12-04T11:24:51;13.47;;;10.83;;
4389;SDS011;2209;48.982;8.406;2023-12-04T11:27:14;15.43;;;11.30;;
4389;SDS011;2209;48.982;8.406;2023-12-04T11:29:38;13.37;;;10.93;;
4389;SDS011;2209;48.982;8.406;2023-12-04T11:32:00;14.70;;;11.90;;
4389;SDS011;2209;48.982;8.406;2023-12-04T11:34:24;15.07;;;12.50;;
4389;SDS011;2209;48.982;8.406;2023-12-04T11:36:46;18.97;;;11.67;;
4389;SDS011;2209;48.982;8.406;2023-12-04T11:39:08;18.20;;;13.13;;
4389;SDS011;2209;48.982;8.406;2023-12-04T11:41:31;16.10;;;11.73;;
4389;SDS011;2209;48.982;8.406;2023-12-04T11:43:55;15.40;;;11.70;;
4389;SDS011;2209;48.982;8.406;2023-12-04T11:46:18;11.80;;;10.40;;
4389;SDS011;2209;48.982;8.406;2023-12-04T11:48:42;16.30;;;12.17;;
